GGFTA EGSR-EGSR
Flight info
| Callsign | GGFTA |
|---|---|
| Flight time | 0h 34m |
| Altitude | 2000 |
| Route | VFR NAVIGATION |
| Aircraft | P28A/L-SDFY/C |
Departure
| Time | 2026-04-12 11:53 |
|---|---|
| Airport | Earls Colne Airfield (EGSR) |
Arrival
| Time | 2026-04-12 12:27 |
|---|---|
| Airport | Earls Colne Airfield (EGSR) |
| Time | Latitude | Longitude | Altitude | Speed | Heading |
|---|---|---|---|---|---|
| 2026-04-12 11:15 | 51.91260 | 0.67913 | 232 ft | 0 kts | 330° |
| 2026-04-12 11:45 | 51.91267 | 0.67926 | 231 ft | 5 kts | 133° |
| 2026-04-12 11:45 | 51.91249 | 0.67945 | 232 ft | 3 kts | 124° |
| 2026-04-12 11:46 | 51.91275 | 0.68026 | 231 ft | 13 kts | 61° |
| 2026-04-12 11:46 | 51.91329 | 0.68179 | 231 ft | 16 kts | 59° |
| 2026-04-12 11:46 | 51.91382 | 0.68332 | 229 ft | 16 kts | 61° |
| 2026-04-12 11:46 | 51.91439 | 0.68495 | 231 ft | 16 kts | 58° |
| 2026-04-12 11:47 | 51.91494 | 0.68652 | 231 ft | 16 kts | 58° |
| 2026-04-12 11:47 | 51.91548 | 0.68807 | 234 ft | 15 kts | 59° |
| 2026-04-12 11:47 | 51.91598 | 0.68877 | 233 ft | 5 kts | 343° |
| 2026-04-12 11:47 | 51.91601 | 0.68873 | 233 ft | 0 kts | 308° |
| 2026-04-12 11:51 | 51.91602 | 0.68872 | 233 ft | 1 kts | 311° |
| 2026-04-12 11:51 | 51.91634 | 0.68876 | 232 ft | 8 kts | 357° |
| 2026-04-12 11:51 | 51.91645 | 0.68856 | 232 ft | 0 kts | 240° |
| 2026-04-12 11:52 | 51.91632 | 0.68819 | 234 ft | 19 kts | 241° |
| 2026-04-12 11:52 | 51.91504 | 0.68406 | 240 ft | 59 kts | 237° |
| 2026-04-12 11:52 | 51.91273 | 0.67839 | 422 ft | 57 kts | 226° |
| 2026-04-12 11:53 | 51.91075 | 0.67312 | 660 ft | 53 kts | 230° |
| 2026-04-12 11:53 | 51.90848 | 0.66868 | 843 ft | 56 kts | 201° |
| 2026-04-12 11:53 | 51.90445 | 0.67186 | 996 ft | 76 kts | 160° |
| 2026-04-12 11:53 | 51.90123 | 0.67811 | 1305 ft | 82 kts | 121° |
| 2026-04-12 11:54 | 51.90357 | 0.68822 | 1436 ft | 110 kts | 41° |
| 2026-04-12 11:54 | 51.90797 | 0.69724 | 1745 ft | 99 kts | 77° |
| 2026-04-12 11:54 | 51.90701 | 0.70716 | 1946 ft | 86 kts | 138° |
| 2026-04-12 11:54 | 51.90253 | 0.71442 | 2023 ft | 97 kts | 148° |
| 2026-04-12 11:55 | 51.89773 | 0.72226 | 2002 ft | 101 kts | 146° |
| 2026-04-12 11:55 | 51.89300 | 0.73064 | 2003 ft | 101 kts | 144° |
| 2026-04-12 11:55 | 51.88831 | 0.73912 | 1999 ft | 101 kts | 145° |
| 2026-04-12 11:55 | 51.88355 | 0.74748 | 2009 ft | 100 kts | 148° |
| 2026-04-12 11:56 | 51.87878 | 0.75573 | 2029 ft | 101 kts | 147° |
| 2026-04-12 11:56 | 51.87442 | 0.76484 | 1976 ft | 113 kts | 122° |
| 2026-04-12 11:56 | 51.87615 | 0.77767 | 1912 ft | 127 kts | 58° |
| 2026-04-12 11:56 | 51.88131 | 0.78876 | 1915 ft | 122 kts | 46° |
| 2026-04-12 11:57 | 51.88683 | 0.79891 | 1936 ft | 117 kts | 50° |
| 2026-04-12 11:57 | 51.89218 | 0.80865 | 1995 ft | 115 kts | 51° |
| 2026-04-12 11:57 | 51.89759 | 0.81850 | 2033 ft | 120 kts | 51° |
| 2026-04-12 11:57 | 51.90304 | 0.82941 | 2013 ft | 126 kts | 54° |
| 2026-04-12 11:58 | 51.90848 | 0.84079 | 1999 ft | 129 kts | 54° |
| 2026-04-12 11:58 | 51.91410 | 0.85207 | 2012 ft | 129 kts | 53° |
| 2026-04-12 11:58 | 51.91990 | 0.86318 | 2023 ft | 127 kts | 51° |
| 2026-04-12 11:58 | 51.92496 | 0.87429 | 2020 ft | 125 kts | 79° |
| 2026-04-12 11:59 | 51.92398 | 0.88672 | 2015 ft | 107 kts | 133° |
| 2026-04-12 11:59 | 51.91913 | 0.89481 | 2076 ft | 97 kts | 147° |
| 2026-04-12 11:59 | 51.91399 | 0.90229 | 1999 ft | 104 kts | 149° |
| 2026-04-12 11:59 | 51.90854 | 0.90973 | 1974 ft | 102 kts | 152° |
| 2026-04-12 12:00 | 51.90316 | 0.91761 | 1934 ft | 106 kts | 146° |
| 2026-04-12 12:00 | 51.89787 | 0.92553 | 1940 ft | 103 kts | 151° |
| 2026-04-12 12:00 | 51.89251 | 0.93320 | 1949 ft | 100 kts | 151° |
| 2026-04-12 12:00 | 51.88732 | 0.94056 | 1996 ft | 97 kts | 152° |
| 2026-04-12 12:01 | 51.88222 | 0.94783 | 2008 ft | 98 kts | 152° |
| 2026-04-12 12:01 | 51.87710 | 0.95491 | 2035 ft | 97 kts | 152° |
| 2026-04-12 12:01 | 51.87172 | 0.96169 | 2061 ft | 97 kts | 154° |
| 2026-04-12 12:01 | 51.86642 | 0.96838 | 2078 ft | 98 kts | 155° |
| 2026-04-12 12:02 | 51.86092 | 0.97520 | 2056 ft | 98 kts | 154° |
| 2026-04-12 12:02 | 51.85556 | 0.98171 | 2063 ft | 98 kts | 154° |
| 2026-04-12 12:02 | 51.84999 | 0.98833 | 2040 ft | 98 kts | 154° |
| 2026-04-12 12:02 | 51.84450 | 0.99481 | 2047 ft | 99 kts | 154° |
| 2026-04-12 12:03 | 51.83901 | 1.00132 | 2042 ft | 97 kts | 154° |
| 2026-04-12 12:03 | 51.83357 | 1.00788 | 2030 ft | 97 kts | 154° |
| 2026-04-12 12:03 | 51.82817 | 1.01431 | 1999 ft | 96 kts | 154° |
| 2026-04-12 12:03 | 51.82275 | 1.02082 | 1970 ft | 96 kts | 154° |
| 2026-04-12 12:04 | 51.81739 | 1.02724 | 1933 ft | 92 kts | 156° |
| 2026-04-12 12:04 | 51.81257 | 1.03398 | 1705 ft | 97 kts | 142° |
| 2026-04-12 12:04 | 51.81003 | 1.04478 | 1447 ft | 106 kts | 113° |
| 2026-04-12 12:04 | 51.80856 | 1.05618 | 1274 ft | 103 kts | 115° |
| 2026-04-12 12:05 | 51.80762 | 1.06764 | 1148 ft | 100 kts | 112° |
| 2026-04-12 12:05 | 51.80619 | 1.07858 | 957 ft | 104 kts | 117° |
| 2026-04-12 12:05 | 51.80451 | 1.09019 | 862 ft | 106 kts | 116° |
| 2026-04-12 12:05 | 51.80352 | 1.10165 | 729 ft | 101 kts | 106° |
| 2026-04-12 12:06 | 51.80334 | 1.11243 | 594 ft | 93 kts | 100° |
| 2026-04-12 12:06 | 51.80322 | 1.12264 | 491 ft | 86 kts | 119° |
| 2026-04-12 12:06 | 51.79899 | 1.12757 | 409 ft | 73 kts | 168° |
| 2026-04-12 12:06 | 51.79447 | 1.12991 | 229 ft | 64 kts | 166° |
| 2026-04-12 12:07 | 51.79095 | 1.13016 | 138 ft | 48 kts | 191° |
| 2026-04-12 12:07 | 51.78754 | 1.13010 | 76 ft | 48 kts | 187° |
| 2026-04-12 12:07 | 51.78414 | 1.13030 | 237 ft | 50 kts | 186° |
| 2026-04-12 12:07 | 51.78066 | 1.13044 | 430 ft | 50 kts | 187° |
| 2026-04-12 12:08 | 51.77713 | 1.13037 | 699 ft | 50 kts | 188° |
| 2026-04-12 12:08 | 51.77391 | 1.12914 | 964 ft | 51 kts | 224° |
| 2026-04-12 12:08 | 51.77429 | 1.12307 | 1241 ft | 69 kts | 287° |
| 2026-04-12 12:08 | 51.77885 | 1.11709 | 1393 ft | 83 kts | 298° |
| 2026-04-12 12:09 | 51.78209 | 1.10955 | 1559 ft | 83 kts | 281° |
| 2026-04-12 12:09 | 51.78328 | 1.10033 | 1629 ft | 83 kts | 257° |
| 2026-04-12 12:09 | 51.78310 | 1.09062 | 1702 ft | 88 kts | 257° |
| 2026-04-12 12:09 | 51.78252 | 1.08088 | 1727 ft | 86 kts | 251° |
| 2026-04-12 12:10 | 51.78128 | 1.07133 | 1692 ft | 88 kts | 254° |
| 2026-04-12 12:10 | 51.78075 | 1.06152 | 1698 ft | 87 kts | 256° |
| 2026-04-12 12:10 | 51.78055 | 1.05188 | 1699 ft | 85 kts | 257° |
| 2026-04-12 12:10 | 51.78043 | 1.04238 | 1688 ft | 84 kts | 258° |
| 2026-04-12 12:11 | 51.78038 | 1.03289 | 1662 ft | 86 kts | 260° |
| 2026-04-12 12:11 | 51.78061 | 1.02349 | 1686 ft | 83 kts | 262° |
| 2026-04-12 12:11 | 51.78093 | 1.01409 | 1696 ft | 84 kts | 263° |
| 2026-04-12 12:11 | 51.78127 | 1.00470 | 1712 ft | 84 kts | 263° |
| 2026-04-12 12:12 | 51.78165 | 0.99541 | 1724 ft | 84 kts | 263° |
| 2026-04-12 12:12 | 51.78209 | 0.98580 | 1753 ft | 86 kts | 263° |
| 2026-04-12 12:12 | 51.78252 | 0.97614 | 1775 ft | 89 kts | 263° |
| 2026-04-12 12:12 | 51.78292 | 0.96635 | 1868 ft | 84 kts | 262° |
| 2026-04-12 12:13 | 51.78318 | 0.95683 | 1894 ft | 88 kts | 261° |
| 2026-04-12 12:13 | 51.78329 | 0.94692 | 1954 ft | 85 kts | 260° |
| 2026-04-12 12:13 | 51.78341 | 0.93740 | 1964 ft | 86 kts | 262° |
| 2026-04-12 12:13 | 51.78337 | 0.92780 | 1984 ft | 86 kts | 261° |
| 2026-04-12 12:14 | 51.78475 | 0.91824 | 1984 ft | 96 kts | 290° |
| 2026-04-12 12:14 | 51.78771 | 0.90931 | 2048 ft | 88 kts | 283° |
| 2026-04-12 12:14 | 51.79022 | 0.90018 | 2036 ft | 90 kts | 281° |
| 2026-04-12 12:14 | 51.79224 | 0.89101 | 2110 ft | 87 kts | 276° |
| 2026-04-12 12:15 | 51.79405 | 0.88124 | 2127 ft | 94 kts | 275° |
| 2026-04-12 12:15 | 51.79581 | 0.87058 | 2085 ft | 100 kts | 275° |
| 2026-04-12 12:15 | 51.79732 | 0.85929 | 1980 ft | 106 kts | 272° |
| 2026-04-12 12:15 | 51.79880 | 0.84792 | 2007 ft | 101 kts | 272° |
| 2026-04-12 12:16 | 51.80049 | 0.83699 | 2051 ft | 100 kts | 274° |
| 2026-04-12 12:16 | 51.80224 | 0.82604 | 2035 ft | 101 kts | 274° |
| 2026-04-12 12:16 | 51.80407 | 0.81504 | 1991 ft | 100 kts | 275° |
| 2026-04-12 12:16 | 51.80580 | 0.80418 | 1932 ft | 100 kts | 274° |
| 2026-04-12 12:17 | 51.80758 | 0.79351 | 1897 ft | 98 kts | 274° |
| 2026-04-12 12:17 | 51.80942 | 0.78269 | 1780 ft | 102 kts | 274° |
| 2026-04-12 12:17 | 51.81127 | 0.77186 | 1743 ft | 99 kts | 274° |
| 2026-04-12 12:17 | 51.81295 | 0.76129 | 1740 ft | 94 kts | 274° |
| 2026-04-12 12:18 | 51.81589 | 0.75198 | 1752 ft | 102 kts | 305° |
| 2026-04-12 12:18 | 51.82146 | 0.74457 | 1767 ft | 103 kts | 309° |
| 2026-04-12 12:18 | 51.82724 | 0.73764 | 1876 ft | 104 kts | 311° |
| 2026-04-12 12:18 | 51.83312 | 0.73075 | 1983 ft | 104 kts | 312° |
| 2026-04-12 12:19 | 51.83916 | 0.72424 | 2013 ft | 107 kts | 315° |
| 2026-04-12 12:19 | 51.84553 | 0.71763 | 1996 ft | 109 kts | 316° |
| 2026-04-12 12:19 | 51.85179 | 0.71080 | 1998 ft | 109 kts | 315° |
| 2026-04-12 12:19 | 51.85819 | 0.70414 | 2014 ft | 109 kts | 317° |
| 2026-04-12 12:20 | 51.86460 | 0.69743 | 2004 ft | 111 kts | 317° |
| 2026-04-12 12:20 | 51.87125 | 0.69122 | 2028 ft | 109 kts | 321° |
| 2026-04-12 12:20 | 51.87866 | 0.68703 | 1906 ft | 120 kts | 342° |
| 2026-04-12 12:20 | 51.88705 | 0.68803 | 1871 ft | 126 kts | 14° |
| 2026-04-12 12:21 | 51.89531 | 0.69226 | 2017 ft | 124 kts | 13° |
| 2026-04-12 12:21 | 51.90340 | 0.69618 | 2204 ft | 119 kts | 7° |
| 2026-04-12 12:21 | 51.91097 | 0.69312 | 2167 ft | 111 kts | 330° |
| 2026-04-12 12:21 | 51.91802 | 0.68903 | 2168 ft | 107 kts | 332° |
| 2026-04-12 12:22 | 51.92520 | 0.68521 | 2042 ft | 109 kts | 332° |
| 2026-04-12 12:22 | 51.93198 | 0.68090 | 1792 ft | 101 kts | 314° |
| 2026-04-12 12:22 | 51.93459 | 0.67221 | 1509 ft | 78 kts | 256° |
| 2026-04-12 12:22 | 51.93300 | 0.66402 | 1314 ft | 76 kts | 245° |
| 2026-04-12 12:23 | 51.93050 | 0.65673 | 1184 ft | 76 kts | 235° |
| 2026-04-12 12:23 | 51.92568 | 0.65485 | 1102 ft | 87 kts | 169° |
| 2026-04-12 12:23 | 51.92046 | 0.66065 | 1096 ft | 89 kts | 165° |
| 2026-04-12 12:23 | 51.91485 | 0.66542 | 1154 ft | 94 kts | 167° |
| 2026-04-12 12:24 | 51.90934 | 0.67048 | 1187 ft | 87 kts | 167° |
| 2026-04-12 12:24 | 51.90404 | 0.67471 | 1182 ft | 83 kts | 166° |
| 2026-04-12 12:24 | 51.90173 | 0.68406 | 1166 ft | 105 kts | 94° |
| 2026-04-12 12:24 | 51.90496 | 0.69489 | 1120 ft | 111 kts | 66° |
| 2026-04-12 12:25 | 51.90808 | 0.70608 | 1200 ft | 109 kts | 75° |
| 2026-04-12 12:25 | 51.91106 | 0.71787 | 1178 ft | 113 kts | 74° |
| 2026-04-12 12:25 | 51.91497 | 0.72833 | 969 ft | 105 kts | 36° |
| 2026-04-12 12:25 | 51.92156 | 0.72922 | 787 ft | 90 kts | 332° |
| 2026-04-12 12:26 | 51.92607 | 0.72359 | 748 ft | 73 kts | 281° |
| 2026-04-12 12:26 | 51.92619 | 0.71636 | 662 ft | 65 kts | 249° |
| 2026-04-12 12:26 | 51.92426 | 0.71021 | 597 ft | 58 kts | 235° |
| 2026-04-12 12:26 | 51.92223 | 0.70444 | 516 ft | 64 kts | 233° |
| 2026-04-12 12:27 | 51.92075 | 0.70066 | 475 ft | 60 kts | 238° |
| 2026-04-12 12:27 | 51.91871 | 0.69496 | 382 ft | 56 kts | 233° |
| 2026-04-12 12:27 | 51.91685 | 0.68961 | 284 ft | 53 kts | 234° |
| 2026-04-12 12:27 | 51.91522 | 0.68498 | 230 ft | 37 kts | 229° |
| 2026-04-12 12:28 | 51.91441 | 0.68263 | 226 ft | 14 kts | 233° |
| 2026-04-12 12:28 | 51.91404 | 0.68195 | 228 ft | 6 kts | 223° |
| 2026-04-12 12:28 | 51.91365 | 0.68099 | 228 ft | 13 kts | 236° |
| 2026-04-12 12:28 | 51.91331 | 0.68000 | 228 ft | 7 kts | 240° |
| 2026-04-12 12:29 | 51.91297 | 0.67903 | 231 ft | 14 kts | 240° |
| 2026-04-12 12:29 | 51.91243 | 0.67777 | 232 ft | 13 kts | 193° |
| 2026-04-12 12:29 | 51.91197 | 0.67799 | 231 ft | 10 kts | 70° |
| 2026-04-12 12:29 | 51.91236 | 0.67914 | 232 ft | 9 kts | 65° |
| 2026-04-12 12:30 | 51.91259 | 0.67914 | 231 ft | 0 kts | 331° |